sensor_id;sensor_type;location;lat;lon;timestamp;P1;durP1;ratioP1;P2;durP2;ratioP2
24637;SDS011;12773;50.162;8.548;2022-11-15T00:00:57;15.23;;;9.10;;
24637;SDS011;12773;50.162;8.548;2022-11-15T00:03:44;21.20;;;8.85;;
24637;SDS011;12773;50.162;8.548;2022-11-15T00:06:32;13.60;;;8.15;;
24637;SDS011;12773;50.162;8.548;2022-11-15T00:09:19;16.85;;;9.58;;
24637;SDS011;12773;50.162;8.548;2022-11-15T00:12:07;20.43;;;9.03;;
24637;SDS011;12773;50.162;8.548;2022-11-15T00:14:54;16.97;;;8.70;;
24637;SDS011;12773;50.162;8.548;2022-11-15T00:17:42;18.48;;;8.78;;
24637;SDS011;12773;50.162;8.548;2022-11-15T00:20:29;17.37;;;8.83;;
24637;SDS011;12773;50.162;8.548;2022-11-15T00:23:17;13.62;;;8.65;;
24637;SDS011;12773;50.162;8.548;2022-11-15T00:26:04;13.65;;;8.55;;
24637;SDS011;12773;50.162;8.548;2022-11-15T00:28:53;16.85;;;8.53;;
24637;SDS011;12773;50.162;8.548;2022-11-15T00:31:40;16.15;;;7.55;;
24637;SDS011;12773;50.162;8.548;2022-11-15T00:34:27;15.30;;;8.25;;
24637;SDS011;12773;50.162;8.548;2022-11-15T00:37:15;15.65;;;7.92;;
24637;SDS011;12773;50.162;8.548;2022-11-15T00:40:02;13.35;;;8.08;;
24637;SDS011;12773;50.162;8.548;2022-11-15T00:42:50;16.57;;;8.08;;
24637;SDS011;12773;50.162;8.548;2022-11-15T00:45:47;12.00;;;7.33;;
24637;SDS011;12773;50.162;8.548;2022-11-15T00:48:30;13.10;;;7.42;;
24637;SDS011;12773;50.162;8.548;2022-11-15T00:51:18;15.70;;;7.75;;
24637;SDS011;12773;50.162;8.548;2022-11-15T00:54:06;13.38;;;7.58;;
24637;SDS011;12773;50.162;8.548;2022-11-15T00:56:54;15.40;;;8.03;;
24637;SDS011;12773;50.162;8.548;2022-11-15T00:59:41;15.58;;;7.28;;
24637;SDS011;12773;50.162;8.548;2022-11-15T01:02:28;15.88;;;7.67;;
24637;SDS011;12773;50.162;8.548;2022-11-15T01:05:16;13.43;;;7.20;;
24637;SDS011;12773;50.162;8.548;2022-11-15T01:08:03;15.23;;;7.35;;
24637;SDS011;12773;50.162;8.548;2022-11-15T01:10:50;16.45;;;7.75;;
24637;SDS011;12773;50.162;8.548;2022-11-15T01:13:38;14.00;;;8.38;;
24637;SDS011;12773;50.162;8.548;2022-11-15T01:16:26;14.30;;;7.20;;
24637;SDS011;12773;50.162;8.548;2022-11-15T01:19:13;18.70;;;7.87;;
24637;SDS011;12773;50.162;8.548;2022-11-15T01:22:00;14.20;;;7.95;;
24637;SDS011;12773;50.162;8.548;2022-11-15T01:24:51;13.55;;;7.12;;
24637;SDS011;12773;50.162;8.548;2022-11-15T01:27:38;12.90;;;7.72;;
24637;SDS011;12773;50.162;8.548;2022-11-15T01:30:26;14.40;;;7.58;;
24637;SDS011;12773;50.162;8.548;2022-11-15T01:33:15;21.12;;;8.55;;
24637;SDS011;12773;50.162;8.548;2022-11-15T01:36:10;14.80;;;7.83;;
24637;SDS011;12773;50.162;8.548;2022-11-15T01:38:53;11.10;;;6.97;;
24637;SDS011;12773;50.162;8.548;2022-11-15T01:41:41;10.90;;;6.62;;
24637;SDS011;12773;50.162;8.548;2022-11-15T01:44:39;16.10;;;7.85;;
24637;SDS011;12773;50.162;8.548;2022-11-15T01:47:29;14.58;;;8.15;;
24637;SDS011;12773;50.162;8.548;2022-11-15T01:50:23;10.05;;;6.72;;
24637;SDS011;12773;50.162;8.548;2022-11-15T01:53:08;12.37;;;7.15;;
24637;SDS011;12773;50.162;8.548;2022-11-15T01:55:56;14.87;;;7.17;;
24637;SDS011;12773;50.162;8.548;2022-11-15T01:58:44;14.13;;;7.85;;
24637;SDS011;12773;50.162;8.548;2022-11-15T02:01:32;12.13;;;7.15;;
24637;SDS011;12773;50.162;8.548;2022-11-15T02:04:24;10.58;;;6.70;;
24637;SDS011;12773;50.162;8.548;2022-11-15T02:07:17;13.88;;;7.50;;
24637;SDS011;12773;50.162;8.548;2022-11-15T02:10:08;9.28;;;6.00;;
24637;SDS011;12773;50.162;8.548;2022-11-15T02:12:58;13.08;;;6.55;;
24637;SDS011;12773;50.162;8.548;2022-11-15T02:19:13;17.17;;;7.00;;
24637;SDS011;12773;50.162;8.548;2022-11-15T02:22:17;13.13;;;7.47;;
24637;SDS011;12773;50.162;8.548;2022-11-15T02:28:44;12.10;;;6.47;;
24637;SDS011;12773;50.162;8.548;2022-11-15T02:34:50;10.30;;;6.35;;
24637;SDS011;12773;50.162;8.548;2022-11-15T02:44:01;11.95;;;6.90;;
24637;SDS011;12773;50.162;8.548;2022-11-15T02:46:52;14.40;;;6.50;;
24637;SDS011;12773;50.162;8.548;2022-11-15T02:50:12;14.23;;;7.50;;
24637;SDS011;12773;50.162;8.548;2022-11-15T02:52:56;12.05;;;7.20;;
24637;SDS011;12773;50.162;8.548;2022-11-15T02:55:44;9.55;;;5.28;;
24637;SDS011;12773;50.162;8.548;2022-11-15T03:01:37;14.45;;;7.33;;
24637;SDS011;12773;50.162;8.548;2022-11-15T03:07:25;11.88;;;6.85;;
24637;SDS011;12773;50.162;8.548;2022-11-15T03:10:42;11.33;;;6.58;;
24637;SDS011;12773;50.162;8.548;2022-11-15T03:13:36;10.13;;;6.12;;
24637;SDS011;12773;50.162;8.548;2022-11-15T03:19:34;14.30;;;7.03;;
24637;SDS011;12773;50.162;8.548;2022-11-15T03:22:26;14.00;;;7.75;;
24637;SDS011;12773;50.162;8.548;2022-11-15T03:25:18;14.53;;;7.42;;
24637;SDS011;12773;50.162;8.548;2022-11-15T03:28:06;13.70;;;8.18;;
24637;SDS011;12773;50.162;8.548;2022-11-15T03:30:56;10.68;;;6.62;;
24637;SDS011;12773;50.162;8.548;2022-11-15T03:33:44;13.08;;;6.90;;
24637;SDS011;12773;50.162;8.548;2022-11-15T03:36:32;14.25;;;7.72;;
24637;SDS011;12773;50.162;8.548;2022-11-15T03:39:21;14.25;;;7.33;;
24637;SDS011;12773;50.162;8.548;2022-11-15T03:42:16;13.50;;;7.15;;
24637;SDS011;12773;50.162;8.548;2022-11-15T03:45:22;13.05;;;7.17;;
24637;SDS011;12773;50.162;8.548;2022-11-15T03:48:22;14.18;;;7.10;;
24637;SDS011;12773;50.162;8.548;2022-11-15T03:51:11;15.00;;;7.20;;
24637;SDS011;12773;50.162;8.548;2022-11-15T03:53:59;14.23;;;7.85;;
24637;SDS011;12773;50.162;8.548;2022-11-15T03:56:51;13.38;;;7.83;;
24637;SDS011;12773;50.162;8.548;2022-11-15T03:59:39;13.22;;;7.35;;
24637;SDS011;12773;50.162;8.548;2022-11-15T04:02:26;13.08;;;7.97;;
24637;SDS011;12773;50.162;8.548;2022-11-15T04:05:14;10.82;;;6.92;;
24637;SDS011;12773;50.162;8.548;2022-11-15T04:08:01;14.87;;;7.67;;
24637;SDS011;12773;50.162;8.548;2022-11-15T04:10:50;12.47;;;7.17;;
24637;SDS011;12773;50.162;8.548;2022-11-15T04:13:38;14.98;;;6.87;;
24637;SDS011;12773;50.162;8.548;2022-11-15T04:16:26;13.08;;;6.95;;
24637;SDS011;12773;50.162;8.548;2022-11-15T04:19:13;10.68;;;6.92;;
24637;SDS011;12773;50.162;8.548;2022-11-15T04:22:19;9.43;;;6.58;;
24637;SDS011;12773;50.162;8.548;2022-11-15T04:25:14;13.18;;;6.92;;
24637;SDS011;12773;50.162;8.548;2022-11-15T04:28:03;13.93;;;6.58;;
24637;SDS011;12773;50.162;8.548;2022-11-15T04:30:50;10.82;;;6.90;;
24637;SDS011;12773;50.162;8.548;2022-11-15T04:33:37;12.47;;;7.05;;
24637;SDS011;12773;50.162;8.548;2022-11-15T04:36:25;14.53;;;7.58;;
24637;SDS011;12773;50.162;8.548;2022-11-15T04:39:31;13.75;;;7.03;;
24637;SDS011;12773;50.162;8.548;2022-11-15T04:42:18;15.23;;;6.70;;
24637;SDS011;12773;50.162;8.548;2022-11-15T04:45:06;14.13;;;6.80;;
24637;SDS011;12773;50.162;8.548;2022-11-15T04:47:53;13.10;;;6.85;;
24637;SDS011;12773;50.162;8.548;2022-11-15T04:50:40;12.03;;;7.47;;
24637;SDS011;12773;50.162;8.548;2022-11-15T04:53:28;13.48;;;6.95;;
24637;SDS011;12773;50.162;8.548;2022-11-15T04:56:15;13.53;;;7.00;;
24637;SDS011;12773;50.162;8.548;2022-11-15T04:59:03;16.02;;;6.75;;
24637;SDS011;12773;50.162;8.548;2022-11-15T05:01:50;13.45;;;6.90;;
24637;SDS011;12773;50.162;8.548;2022-11-15T05:04:37;11.33;;;6.92;;
24637;SDS011;12773;50.162;8.548;2022-11-15T05:07:26;13.32;;;6.50;;
24637;SDS011;12773;50.162;8.548;2022-11-15T05:10:14;12.23;;;7.25;;
24637;SDS011;12773;50.162;8.548;2022-11-15T05:13:01;12.10;;;6.85;;
24637;SDS011;12773;50.162;8.548;2022-11-15T05:15:48;11.38;;;6.80;;
24637;SDS011;12773;50.162;8.548;2022-11-15T05:18:36;12.65;;;7.37;;
24637;SDS011;12773;50.162;8.548;2022-11-15T05:21:25;12.23;;;7.53;;
24637;SDS011;12773;50.162;8.548;2022-11-15T05:24:13;10.03;;;6.67;;
24637;SDS011;12773;50.162;8.548;2022-11-15T05:27:00;12.03;;;7.17;;
24637;SDS011;12773;50.162;8.548;2022-11-15T05:29:47;13.90;;;7.25;;
24637;SDS011;12773;50.162;8.548;2022-11-15T05:32:35;13.20;;;7.37;;
24637;SDS011;12773;50.162;8.548;2022-11-15T05:35:29;21.15;;;7.33;;
24637;SDS011;12773;50.162;8.548;2022-11-15T05:38:18;14.03;;;7.50;;
24637;SDS011;12773;50.162;8.548;2022-11-15T05:41:06;12.20;;;7.12;;
24637;SDS011;12773;50.162;8.548;2022-11-15T05:43:53;13.40;;;7.37;;
24637;SDS011;12773;50.162;8.548;2022-11-15T05:46:41;13.32;;;7.60;;
24637;SDS011;12773;50.162;8.548;2022-11-15T05:49:30;16.67;;;7.67;;
24637;SDS011;12773;50.162;8.548;2022-11-15T05:52:20;12.33;;;7.87;;
24637;SDS011;12773;50.162;8.548;2022-11-15T05:55:10;12.10;;;7.33;;
24637;SDS011;12773;50.162;8.548;2022-11-15T05:57:58;15.30;;;8.70;;
24637;SDS011;12773;50.162;8.548;2022-11-15T06:00:47;12.23;;;7.40;;
24637;SDS011;12773;50.162;8.548;2022-11-15T06:03:34;14.33;;;7.35;;
24637;SDS011;12773;50.162;8.548;2022-11-15T06:06:21;14.87;;;8.23;;
24637;SDS011;12773;50.162;8.548;2022-11-15T06:09:09;13.32;;;7.10;;
24637;SDS011;12773;50.162;8.548;2022-11-15T06:11:57;16.37;;;7.53;;
24637;SDS011;12773;50.162;8.548;2022-11-15T06:14:44;15.48;;;7.87;;
24637;SDS011;12773;50.162;8.548;2022-11-15T06:17:31;10.20;;;7.00;;
24637;SDS011;12773;50.162;8.548;2022-11-15T06:20:18;13.70;;;7.28;;
24637;SDS011;12773;50.162;8.548;2022-11-15T06:23:05;13.40;;;7.53;;
24637;SDS011;12773;50.162;8.548;2022-11-15T06:25:53;12.13;;;6.85;;
24637;SDS011;12773;50.162;8.548;2022-11-15T06:28:40;13.68;;;7.42;;
24637;SDS011;12773;50.162;8.548;2022-11-15T06:31:27;12.23;;;6.80;;
24637;SDS011;12773;50.162;8.548;2022-11-15T06:34:15;12.37;;;6.97;;
24637;SDS011;12773;50.162;8.548;2022-11-15T06:37:02;11.43;;;7.05;;
24637;SDS011;12773;50.162;8.548;2022-11-15T06:39:50;11.65;;;7.20;;
24637;SDS011;12773;50.162;8.548;2022-11-15T06:42:37;12.50;;;6.70;;
24637;SDS011;12773;50.162;8.548;2022-11-15T06:45:25;13.22;;;6.80;;
24637;SDS011;12773;50.162;8.548;2022-11-15T06:48:13;13.90;;;6.17;;
24637;SDS011;12773;50.162;8.548;2022-11-15T06:51:02;11.68;;;6.60;;
24637;SDS011;12773;50.162;8.548;2022-11-15T06:53:50;17.02;;;7.05;;
24637;SDS011;12773;50.162;8.548;2022-11-15T06:56:37;10.08;;;6.53;;
24637;SDS011;12773;50.162;8.548;2022-11-15T06:59:25;9.43;;;6.25;;
24637;SDS011;12773;50.162;8.548;2022-11-15T07:02:13;12.50;;;6.42;;
24637;SDS011;12773;50.162;8.548;2022-11-15T07:05:00;11.85;;;6.50;;
24637;SDS011;12773;50.162;8.548;2022-11-15T07:07:51;12.60;;;6.60;;
24637;SDS011;12773;50.162;8.548;2022-11-15T07:10:42;11.63;;;6.20;;
24637;SDS011;12773;50.162;8.548;2022-11-15T07:13:30;11.97;;;6.62;;
24637;SDS011;12773;50.162;8.548;2022-11-15T07:16:22;11.80;;;6.50;;
24637;SDS011;12773;50.162;8.548;2022-11-15T07:19:10;12.82;;;7.03;;
24637;SDS011;12773;50.162;8.548;2022-11-15T07:21:57;12.58;;;6.60;;
24637;SDS011;12773;50.162;8.548;2022-11-15T07:24:45;13.28;;;7.20;;
24637;SDS011;12773;50.162;8.548;2022-11-15T07:27:32;11.78;;;6.62;;
24637;SDS011;12773;50.162;8.548;2022-11-15T07:30:20;11.80;;;6.25;;
24637;SDS011;12773;50.162;8.548;2022-11-15T07:33:07;12.90;;;6.87;;
24637;SDS011;12773;50.162;8.548;2022-11-15T07:35:57;14.87;;;6.53;;
24637;SDS011;12773;50.162;8.548;2022-11-15T07:38:47;13.28;;;6.78;;
24637;SDS011;12773;50.162;8.548;2022-11-15T07:41:34;11.68;;;6.78;;
24637;SDS011;12773;50.162;8.548;2022-11-15T07:44:21;16.15;;;6.90;;
24637;SDS011;12773;50.162;8.548;2022-11-15T07:47:09;13.45;;;7.85;;
24637;SDS011;12773;50.162;8.548;2022-11-15T07:49:56;15.10;;;8.10;;
24637;SDS011;12773;50.162;8.548;2022-11-15T07:52:44;13.48;;;7.60;;
24637;SDS011;12773;50.162;8.548;2022-11-15T07:55:31;14.85;;;7.85;;
24637;SDS011;12773;50.162;8.548;2022-11-15T07:58:19;17.37;;;7.83;;
24637;SDS011;12773;50.162;8.548;2022-11-15T08:01:07;12.80;;;6.65;;
24637;SDS011;12773;50.162;8.548;2022-11-15T08:03:56;14.63;;;7.33;;
24637;SDS011;12773;50.162;8.548;2022-11-15T08:06:43;10.00;;;6.15;;
24637;SDS011;12773;50.162;8.548;2022-11-15T08:09:31;10.93;;;6.20;;
24637;SDS011;12773;50.162;8.548;2022-11-15T08:12:18;10.15;;;5.83;;
24637;SDS011;12773;50.162;8.548;2022-11-15T08:15:06;11.63;;;6.28;;
24637;SDS011;12773;50.162;8.548;2022-11-15T08:17:55;11.18;;;7.00;;
24637;SDS011;12773;50.162;8.548;2022-11-15T08:20:47;12.28;;;6.53;;
24637;SDS011;12773;50.162;8.548;2022-11-15T08:23:34;12.85;;;6.30;;
24637;SDS011;12773;50.162;8.548;2022-11-15T08:26:22;10.45;;;5.83;;
24637;SDS011;12773;50.162;8.548;2022-11-15T08:29:11;13.18;;;6.00;;
24637;SDS011;12773;50.162;8.548;2022-11-15T08:31:58;12.53;;;6.22;;
24637;SDS011;12773;50.162;8.548;2022-11-15T08:34:45;14.65;;;6.15;;
24637;SDS011;12773;50.162;8.548;2022-11-15T08:37:32;10.48;;;6.30;;
24637;SDS011;12773;50.162;8.548;2022-11-15T08:40:21;8.63;;;5.92;;
24637;SDS011;12773;50.162;8.548;2022-11-15T08:43:08;11.35;;;5.90;;
24637;SDS011;12773;50.162;8.548;2022-11-15T08:45:57;10.88;;;6.42;;
24637;SDS011;12773;50.162;8.548;2022-11-15T08:48:44;11.33;;;6.50;;
24637;SDS011;12773;50.162;8.548;2022-11-15T08:51:31;11.05;;;6.55;;
24637;SDS011;12773;50.162;8.548;2022-11-15T08:54:18;14.60;;;6.75;;
24637;SDS011;12773;50.162;8.548;2022-11-15T08:57:06;11.25;;;6.53;;
24637;SDS011;12773;50.162;8.548;2022-11-15T08:59:55;10.60;;;6.35;;
24637;SDS011;12773;50.162;8.548;2022-11-15T09:02:42;11.35;;;6.72;;
24637;SDS011;12773;50.162;8.548;2022-11-15T09:05:30;11.40;;;6.70;;
24637;SDS011;12773;50.162;8.548;2022-11-15T09:08:17;11.85;;;7.17;;
24637;SDS011;12773;50.162;8.548;2022-11-15T09:11:07;12.10;;;7.10;;
24637;SDS011;12773;50.162;8.548;2022-11-15T09:13:55;11.93;;;7.78;;
24637;SDS011;12773;50.162;8.548;2022-11-15T09:16:42;14.65;;;7.62;;
24637;SDS011;12773;50.162;8.548;2022-11-15T09:19:29;12.73;;;6.87;;
24637;SDS011;12773;50.162;8.548;2022-11-15T09:22:17;12.88;;;7.15;;
24637;SDS011;12773;50.162;8.548;2022-11-15T09:25:05;18.62;;;11.55;;
24637;SDS011;12773;50.162;8.548;2022-11-15T09:27:54;13.10;;;8.05;;
24637;SDS011;12773;50.162;8.548;2022-11-15T09:30:42;14.75;;;7.58;;
24637;SDS011;12773;50.162;8.548;2022-11-15T09:33:29;14.78;;;7.60;;
24637;SDS011;12773;50.162;8.548;2022-11-15T09:36:17;12.75;;;7.03;;
24637;SDS011;12773;50.162;8.548;2022-11-15T09:39:05;13.00;;;7.15;;
24637;SDS011;12773;50.162;8.548;2022-11-15T09:45:09;9.60;;;6.72;;
24637;SDS011;12773;50.162;8.548;2022-11-15T09:48:12;13.60;;;7.50;;
24637;SDS011;12773;50.162;8.548;2022-11-15T09:50:58;12.33;;;7.35;;
24637;SDS011;12773;50.162;8.548;2022-11-15T09:53:50;12.47;;;7.17;;
24637;SDS011;12773;50.162;8.548;2022-11-15T09:56:46;12.33;;;7.15;;
24637;SDS011;12773;50.162;8.548;2022-11-15T10:05:45;15.43;;;8.13;;
24637;SDS011;12773;50.162;8.548;2022-11-15T10:11:43;13.35;;;7.75;;
24637;SDS011;12773;50.162;8.548;2022-11-15T10:14:31;15.50;;;7.78;;
24637;SDS011;12773;50.162;8.548;2022-11-15T10:20:30;11.25;;;7.15;;
24637;SDS011;12773;50.162;8.548;2022-11-15T10:23:15;12.68;;;7.40;;
24637;SDS011;12773;50.162;8.548;2022-11-15T10:26:10;13.32;;;7.35;;
24637;SDS011;12773;50.162;8.548;2022-11-15T10:28:59;18.32;;;9.03;;
24637;SDS011;12773;50.162;8.548;2022-11-15T10:31:47;11.70;;;6.62;;
24637;SDS011;12773;50.162;8.548;2022-11-15T10:34:35;17.20;;;10.35;;
24637;SDS011;12773;50.162;8.548;2022-11-15T10:37:27;21.40;;;9.50;;
24637;SDS011;12773;50.162;8.548;2022-11-15T10:40:20;13.35;;;7.25;;
24637;SDS011;12773;50.162;8.548;2022-11-15T10:46:08;16.77;;;7.80;;
24637;SDS011;12773;50.162;8.548;2022-11-15T10:48:52;9.90;;;7.00;;
24637;SDS011;12773;50.162;8.548;2022-11-15T10:51:55;13.50;;;7.28;;
24637;SDS011;12773;50.162;8.548;2022-11-15T10:57:33;11.28;;;7.30;;
24637;SDS011;12773;50.162;8.548;2022-11-15T11:00:29;13.80;;;7.42;;
24637;SDS011;12773;50.162;8.548;2022-11-15T11:03:26;12.13;;;7.40;;
24637;SDS011;12773;50.162;8.548;2022-11-15T11:06:13;15.40;;;7.85;;
24637;SDS011;12773;50.162;8.548;2022-11-15T11:09:04;13.85;;;7.42;;
24637;SDS011;12773;50.162;8.548;2022-11-15T11:11:52;13.10;;;7.40;;
24637;SDS011;12773;50.162;8.548;2022-11-15T11:14:40;14.05;;;8.08;;
24637;SDS011;12773;50.162;8.548;2022-11-15T11:20:25;16.87;;;7.70;;
24637;SDS011;12773;50.162;8.548;2022-11-15T11:26:27;11.85;;;7.35;;
24637;SDS011;12773;50.162;8.548;2022-11-15T11:32:27;12.90;;;8.00;;
24637;SDS011;12773;50.162;8.548;2022-11-15T11:35:17;18.32;;;8.38;;
24637;SDS011;12773;50.162;8.548;2022-11-15T11:38:19;13.63;;;7.67;;
24637;SDS011;12773;50.162;8.548;2022-11-15T11:41:08;11.83;;;7.30;;
24637;SDS011;12773;50.162;8.548;2022-11-15T11:47:15;10.90;;;7.47;;
24637;SDS011;12773;50.162;8.548;2022-11-15T11:50:38;15.98;;;8.40;;
24637;SDS011;12773;50.162;8.548;2022-11-15T11:53:05;16.05;;;8.33;;
24637;SDS011;12773;50.162;8.548;2022-11-15T11:55:54;12.47;;;6.87;;
24637;SDS011;12773;50.162;8.548;2022-11-15T11:58:44;14.23;;;7.95;;
24637;SDS011;12773;50.162;8.548;2022-11-15T12:01:36;15.48;;;8.18;;
24637;SDS011;12773;50.162;8.548;2022-11-15T12:04:27;19.62;;;8.43;;
24637;SDS011;12773;50.162;8.548;2022-11-15T12:07:23;12.63;;;7.60;;
24637;SDS011;12773;50.162;8.548;2022-11-15T12:10:14;15.10;;;7.90;;
24637;SDS011;12773;50.162;8.548;2022-11-15T12:13:15;15.18;;;8.50;;
24637;SDS011;12773;50.162;8.548;2022-11-15T12:16:12;15.00;;;8.13;;
24637;SDS011;12773;50.162;8.548;2022-11-15T12:19:01;15.05;;;8.60;;
24637;SDS011;12773;50.162;8.548;2022-11-15T12:21:53;13.95;;;7.85;;
24637;SDS011;12773;50.162;8.548;2022-11-15T12:24:50;13.95;;;8.30;;
24637;SDS011;12773;50.162;8.548;2022-11-15T12:27:38;15.13;;;8.08;;
24637;SDS011;12773;50.162;8.548;2022-11-15T12:33:47;14.80;;;7.45;;
24637;SDS011;12773;50.162;8.548;2022-11-15T12:36:36;16.60;;;7.37;;
24637;SDS011;12773;50.162;8.548;2022-11-15T12:42:41;10.93;;;6.35;;
24637;SDS011;12773;50.162;8.548;2022-11-15T12:57:31;11.45;;;5.78;;
24637;SDS011;12773;50.162;8.548;2022-11-15T13:03:17;8.20;;;5.40;;
24637;SDS011;12773;50.162;8.548;2022-11-15T13:06:07;7.60;;;5.35;;
24637;SDS011;12773;50.162;8.548;2022-11-15T13:08:56;7.75;;;5.37;;
24637;SDS011;12773;50.162;8.548;2022-11-15T13:11:44;8.78;;;5.97;;
24637;SDS011;12773;50.162;8.548;2022-11-15T13:17:37;11.35;;;5.92;;
24637;SDS011;12773;50.162;8.548;2022-11-15T13:20:34;11.75;;;5.62;;
24637;SDS011;12773;50.162;8.548;2022-11-15T13:23:21;12.95;;;6.25;;
24637;SDS011;12773;50.162;8.548;2022-11-15T13:26:13;9.65;;;5.95;;
24637;SDS011;12773;50.162;8.548;2022-11-15T13:29:13;10.53;;;5.80;;
24637;SDS011;12773;50.162;8.548;2022-11-15T13:32:09;11.95;;;6.15;;
24637;SDS011;12773;50.162;8.548;2022-11-15T13:34:55;11.22;;;5.95;;
24637;SDS011;12773;50.162;8.548;2022-11-15T13:37:42;9.38;;;5.67;;
24637;SDS011;12773;50.162;8.548;2022-11-15T13:40:40;14.30;;;6.47;;
24637;SDS011;12773;50.162;8.548;2022-11-15T13:46:17;12.73;;;6.28;;
24637;SDS011;12773;50.162;8.548;2022-11-15T13:49:09;12.13;;;6.28;;
24637;SDS011;12773;50.162;8.548;2022-11-15T13:51:57;10.43;;;6.10;;
24637;SDS011;12773;50.162;8.548;2022-11-15T13:54:47;10.18;;;5.95;;
24637;SDS011;12773;50.162;8.548;2022-11-15T13:57:47;12.58;;;6.22;;
24637;SDS011;12773;50.162;8.548;2022-11-15T14:00:44;9.75;;;6.12;;
24637;SDS011;12773;50.162;8.548;2022-11-15T14:03:35;12.00;;;6.08;;
24637;SDS011;12773;50.162;8.548;2022-11-15T14:06:24;9.03;;;5.87;;
24637;SDS011;12773;50.162;8.548;2022-11-15T14:12:28;12.18;;;6.17;;
24637;SDS011;12773;50.162;8.548;2022-11-15T14:15:40;10.53;;;6.50;;
24637;SDS011;12773;50.162;8.548;2022-11-15T14:18:39;9.63;;;6.05;;
24637;SDS011;12773;50.162;8.548;2022-11-15T14:21:05;12.10;;;6.40;;
24637;SDS011;12773;50.162;8.548;2022-11-15T14:24:13;12.88;;;6.10;;
24637;SDS011;12773;50.162;8.548;2022-11-15T14:27:25;13.30;;;6.70;;
24637;SDS011;12773;50.162;8.548;2022-11-15T14:30:04;9.85;;;6.35;;
24637;SDS011;12773;50.162;8.548;2022-11-15T14:32:52;9.53;;;5.90;;
24637;SDS011;12773;50.162;8.548;2022-11-15T14:35:39;10.93;;;6.60;;
24637;SDS011;12773;50.162;8.548;2022-11-15T14:38:27;10.78;;;6.10;;
24637;SDS011;12773;50.162;8.548;2022-11-15T14:41:19;9.93;;;6.25;;
24637;SDS011;12773;50.162;8.548;2022-11-15T14:44:11;10.95;;;6.10;;
24637;SDS011;12773;50.162;8.548;2022-11-15T14:47:00;11.50;;;6.25;;
24637;SDS011;12773;50.162;8.548;2022-11-15T14:49:47;9.30;;;6.62;;
24637;SDS011;12773;50.162;8.548;2022-11-15T14:52:34;11.08;;;6.33;;
24637;SDS011;12773;50.162;8.548;2022-11-15T14:55:26;11.60;;;6.35;;
24637;SDS011;12773;50.162;8.548;2022-11-15T15:00:51;13.98;;;6.45;;
24637;SDS011;12773;50.162;8.548;2022-11-15T15:03:38;10.05;;;5.67;;
24637;SDS011;12773;50.162;8.548;2022-11-15T15:06:25;10.40;;;5.78;;
24637;SDS011;12773;50.162;8.548;2022-11-15T15:09:13;11.12;;;6.17;;
24637;SDS011;12773;50.162;8.548;2022-11-15T15:12:03;11.28;;;6.00;;
24637;SDS011;12773;50.162;8.548;2022-11-15T15:14:53;12.45;;;6.08;;
24637;SDS011;12773;50.162;8.548;2022-11-15T15:17:41;17.95;;;6.42;;
24637;SDS011;12773;50.162;8.548;2022-11-15T15:20:28;11.73;;;6.42;;
24637;SDS011;12773;50.162;8.548;2022-11-15T15:23:17;11.15;;;6.78;;
24637;SDS011;12773;50.162;8.548;2022-11-15T15:26:11;12.47;;;6.33;;
24637;SDS011;12773;50.162;8.548;2022-11-15T15:28:58;10.28;;;6.05;;
24637;SDS011;12773;50.162;8.548;2022-11-15T15:31:46;11.97;;;6.42;;
24637;SDS011;12773;50.162;8.548;2022-11-15T15:34:33;13.18;;;6.30;;
24637;SDS011;12773;50.162;8.548;2022-11-15T15:40:15;13.93;;;6.42;;
24637;SDS011;12773;50.162;8.548;2022-11-15T15:43:03;13.53;;;5.87;;
24637;SDS011;12773;50.162;8.548;2022-11-15T15:45:52;10.68;;;5.87;;
24637;SDS011;12773;50.162;8.548;2022-11-15T15:48:39;13.75;;;6.78;;
24637;SDS011;12773;50.162;8.548;2022-11-15T15:51:27;13.10;;;6.45;;
24637;SDS011;12773;50.162;8.548;2022-11-15T15:54:14;13.15;;;6.50;;
24637;SDS011;12773;50.162;8.548;2022-11-15T15:57:02;16.42;;;7.75;;
24637;SDS011;12773;50.162;8.548;2022-11-15T15:59:49;15.43;;;7.72;;
24637;SDS011;12773;50.162;8.548;2022-11-15T16:02:38;18.35;;;7.47;;
24637;SDS011;12773;50.162;8.548;2022-11-15T16:05:26;12.63;;;6.80;;
24637;SDS011;12773;50.162;8.548;2022-11-15T16:08:18;12.28;;;6.03;;
24637;SDS011;12773;50.162;8.548;2022-11-15T16:11:07;13.43;;;6.08;;
24637;SDS011;12773;50.162;8.548;2022-11-15T16:13:55;10.43;;;5.65;;
24637;SDS011;12773;50.162;8.548;2022-11-15T16:16:42;10.65;;;5.60;;
24637;SDS011;12773;50.162;8.548;2022-11-15T16:19:30;8.35;;;4.58;;
24637;SDS011;12773;50.162;8.548;2022-11-15T16:22:17;8.88;;;5.15;;
24637;SDS011;12773;50.162;8.548;2022-11-15T16:25:05;11.73;;;5.45;;
24637;SDS011;12773;50.162;8.548;2022-11-15T16:27:52;10.32;;;5.78;;
24637;SDS011;12773;50.162;8.548;2022-11-15T16:30:40;10.75;;;5.75;;
24637;SDS011;12773;50.162;8.548;2022-11-15T16:33:27;11.08;;;5.62;;
24637;SDS011;12773;50.162;8.548;2022-11-15T16:36:20;9.83;;;4.92;;
24637;SDS011;12773;50.162;8.548;2022-11-15T16:39:11;9.40;;;5.30;;
24637;SDS011;12773;50.162;8.548;2022-11-15T16:41:59;10.68;;;4.55;;
24637;SDS011;12773;50.162;8.548;2022-11-15T16:44:47;13.15;;;5.92;;
24637;SDS011;12773;50.162;8.548;2022-11-15T16:47:37;11.15;;;4.70;;
24637;SDS011;12773;50.162;8.548;2022-11-15T16:50:25;8.55;;;4.75;;
24637;SDS011;12773;50.162;8.548;2022-11-15T16:53:14;10.43;;;4.60;;
24637;SDS011;12773;50.162;8.548;2022-11-15T16:56:02;7.42;;;4.22;;
24637;SDS011;12773;50.162;8.548;2022-11-15T16:58:49;9.25;;;4.95;;
24637;SDS011;12773;50.162;8.548;2022-11-15T17:01:39;13.38;;;4.42;;
24637;SDS011;12773;50.162;8.548;2022-11-15T17:04:29;11.45;;;5.58;;
24637;SDS011;12773;50.162;8.548;2022-11-15T17:07:18;11.90;;;5.53;;
24637;SDS011;12773;50.162;8.548;2022-11-15T17:10:06;10.65;;;5.45;;
24637;SDS011;12773;50.162;8.548;2022-11-15T17:12:56;11.08;;;5.87;;
24637;SDS011;12773;50.162;8.548;2022-11-15T17:15:44;16.30;;;5.83;;
24637;SDS011;12773;50.162;8.548;2022-11-15T17:18:32;8.85;;;4.30;;
24637;SDS011;12773;50.162;8.548;2022-11-15T17:21:21;10.10;;;4.78;;
24637;SDS011;12773;50.162;8.548;2022-11-15T17:24:09;8.98;;;4.37;;
24637;SDS011;12773;50.162;8.548;2022-11-15T17:26:57;9.68;;;5.08;;
24637;SDS011;12773;50.162;8.548;2022-11-15T17:29:44;10.15;;;5.78;;
24637;SDS011;12773;50.162;8.548;2022-11-15T17:32:34;9.93;;;4.92;;
24637;SDS011;12773;50.162;8.548;2022-11-15T17:35:22;11.50;;;5.30;;
24637;SDS011;12773;50.162;8.548;2022-11-15T17:38:10;10.43;;;5.10;;
24637;SDS011;12773;50.162;8.548;2022-11-15T17:41:06;9.45;;;5.00;;
24637;SDS011;12773;50.162;8.548;2022-11-15T17:43:56;9.05;;;4.85;;
24637;SDS011;12773;50.162;8.548;2022-11-15T17:46:44;10.35;;;5.60;;
24637;SDS011;12773;50.162;8.548;2022-11-15T17:49:32;12.35;;;5.90;;
24637;SDS011;12773;50.162;8.548;2022-11-15T17:52:21;15.93;;;8.35;;
24637;SDS011;12773;50.162;8.548;2022-11-15T17:55:08;13.98;;;7.83;;
24637;SDS011;12773;50.162;8.548;2022-11-15T17:57:56;11.30;;;6.17;;
24637;SDS011;12773;50.162;8.548;2022-11-15T18:00:49;9.23;;;4.35;;
24637;SDS011;12773;50.162;8.548;2022-11-15T18:03:33;10.40;;;4.00;;
24637;SDS011;12773;50.162;8.548;2022-11-15T18:06:22;5.33;;;3.50;;
24637;SDS011;12773;50.162;8.548;2022-11-15T18:09:10;8.43;;;4.80;;
24637;SDS011;12773;50.162;8.548;2022-11-15T18:11:57;10.32;;;5.37;;
24637;SDS011;12773;50.162;8.548;2022-11-15T18:14:44;11.55;;;6.53;;
24637;SDS011;12773;50.162;8.548;2022-11-15T18:17:32;14.28;;;5.75;;
24637;SDS011;12773;50.162;8.548;2022-11-15T18:20:19;15.45;;;5.42;;
24637;SDS011;12773;50.162;8.548;2022-11-15T18:23:09;11.85;;;4.53;;